Austin, Texas
Traffic Map
Current Weather Conditions
Austin, Texas
Light Rain

Feels Like: -2°
Wind Chill: -2° Ceiling:
Heat Index: Visibility: 6mi
Dew Point: Wind: 13mph
Humidity: 93% Direction: 350° (N)
Pressure: 30.09in Gusts: 25mph
Raw Report DataKATT 050211Z AUTO 35011G22KT 6SM -RA BR 03/02 A3009 RMK AO2 RAB00 P0000 T00280017 $
Traffic Incident Summary
Active as of:
Severity:
Category:
InformationThere was an issue retrieving the traffic information for this location. Please try a different location or try again shortly.
Advertisements
Track Severe Weather on mobile